Share

Seminole, OK (74818)

Strothers & Harvey Road SE (KOKSEMIN4) Elev 961 ft | 35.23 °N, 96.65 °W | Change Station

Current weather conditions updated 48 seconds ago

Haze
Haze
53.8 °F
Feels Like 53.8 °F
N
0.0
Wind Variable Wind from NE
Gusts 0.0 mph
Sunrise 6:51 AM
Sunset 8:01 PM
Moon Waning Gibbous

Tomorrow is forecast to be Much Warmer than today.

Pressure 30.26 in
Visibility 5.0 miles
Clouds Mostly Cloudy 10000 ft
Dew Point 42 °F
Humidity 64%
Rainfall 0.00 in
Snow Depth Not available.
UV 0 out of 16
Pollen 6.40 out of 12
Air Quality Not available.
Flu Activity Regional
METAR KSNL 180355Z AUTO 00000KT 5SM HZ BKN100 12/07 A3026 RMK AO2

More Conditions Fewer Conditions

Pressure 30.26 in
Visibility 5.0 miles
Clouds Mostly Cloudy 10000 ft
Dew Point 42 °F
Humidity 64%
Rainfall 0.00 in
Snow Depth Not available.
UV 0 out of 16
Pollen 6.40 out of 12
Air Quality Not available.
Flu Activity Regional
METAR KSNL 180355Z AUTO 00000KT 5SM HZ BKN100 12/07 A3026 RMK AO2

More Conditions Fewer Conditions

10-Day Forecast

Almanac

Astronomy

Apr. 17, 2014 Rise Set
Actual Time 6:51 AM CDT 8:01 PM CDT
Civil Twilight 6:25 AM CDT 8:27 PM CDT
Nautical Twilight 5:54 AM CDT 8:58 PM CDT
Astronomical Twilight 5:22 AM CDT 9:31 PM CDT
Moon 10:43 PM CDT (4/17) 8:28 AM CDT (4/17)
Length of Visible Light 14h 01m
Length of Day
13h 09m
Tomorrow will be 2m 5s longer.
Waning Gibbous, 91% of the Moon is Illuminated
Apr 18
Waning Gibbous
Apr 22
Last Quarter
Apr 29
New
May 6
First Quarter
May 14
Full

Today's Extremes

State Highs State Lows

Community

  • SUNRISE THROUGH THE TREES.
    SUNRISE THROUGH THE TREES.
  • Dog Wood Blossoms
    Dog Wood Blossoms
  • Morning Light
    Morning Light
  • New Day
    New Day
  • Lake Michigan Sunrise
    Lake Michigan Sunrise

WunderPhotos

Upload Photos

1,702,247 photos uploaded!

WunderBlogs® & News

Nearby

Snow Depth

Station Depth Elevation
No new snow has been reported.

Coastal Water Temperatures

Place Temperature
No Stations Reporting

Earthquake Activity

City Distance Mag. Time & Date
Guthrie, Oklahoma 61 miles 3.0 8:17 AM CDT
2014-04-14
Guthrie, Oklahoma 60 miles 3.7 3:02 PM CDT
2014-04-13
Guthrie, Oklahoma 60 miles 2.9 12:23 PM CDT
2014-04-13
Guthrie, Oklahoma 59 miles 3.8 12:00 PM CDT
2014-04-13
Minimum magnitude displayed is 2.5.

Nearby Weather Stations

Station Location Temp. Dew Point Humidity Wind Precip. Elev Updated Type
Strothers & Harvey Road SE, Seminole, OK 53.8 °F 42 °F 64% NE  at  0.0 mph 0.00 in / hr 961 ft 11:00 PM CDT Normal
Northwood, Seminole, OK 52.0 °F 44 °F 74% North  at  3.5 mph 0.00 in / hr 945 ft 11:01 PM CDT Rapid Fire
Emergency Operations Center, Holdenville, OK 53.9 °F 46 °F 74% NNE  at  0.0 mph 0.00 in / hr 883 ft 11:00 PM CDT Normal

Show More Stations Show Fewer Stations

What do you think?

We're not finished. Please let us know what you like, what you don't like, and what you are still missing.